Time;durP1;ratioP1;P1;durP2;ratioP2;P2;SDS_P1;SDS_P2;PMS_P1;PMS_P2;Temp;Humidity;BMP_temperature;BMP_pressure;BME280_temperature;BME280_humidity;BME280_pressure;Samples;Min_cycle;Max_cycle;Signal;HPM_P1;HPM_P2
2022/07/26 00:02:10;;;;;;;8.33;3.63;;;25.30;12.60;;;;;;4989890;28;20480;-68
2022/07/26 00:04:37;;;;;;;6.33;3.13;;;25.30;12.70;;;;;;4989450;28;20476;-69
2022/07/26 00:07:04;;;;;;;7.77;3.40;;;25.30;12.80;;;;;;4996407;28;20467;-69
2022/07/26 00:09:32;;;;;;;8.60;3.90;;;25.30;13.10;;;;;;4996189;28;20475;-68
2022/07/26 00:11:59;;;;;;;8.43;3.77;;;25.30;12.80;;;;;;5003576;28;20482;-68
2022/07/26 00:14:26;;;;;;;5.13;3.10;;;25.30;12.60;;;;;;4996617;28;20461;-69
2022/07/26 00:16:52;;;;;;;8.60;3.60;;;25.30;12.40;;;;;;5001207;28;20462;-69
2022/07/26 00:19:19;;;;;;;7.30;3.50;;;25.20;12.20;;;;;;5009270;28;20466;-69
2022/07/26 00:21:46;;;;;;;6.20;3.40;;;25.20;12.00;;;;;;4995844;28;21009;-68
2022/07/26 00:24:13;;;;;;;8.53;3.80;;;25.20;12.20;;;;;;4996514;28;20478;-69
2022/07/26 00:26:41;;;;;;;9.60;3.37;;;25.10;12.20;;;;;;5000553;28;20476;-68
2022/07/26 00:29:08;;;;;;;7.60;3.20;;;25.10;12.50;;;;;;5006092;28;20468;-68
2022/07/26 00:31:35;;;;;;;8.60;2.90;;;25.10;12.40;;;;;;4995582;28;20487;-69
2022/07/26 00:34:01;;;;;;;6.07;3.17;;;25.10;12.40;;;;;;5001475;28;20478;-69
2022/07/26 00:36:28;;;;;;;7.50;3.23;;;25.00;13.40;;;;;;4990467;28;20473;-69
2022/07/26 00:38:55;;;;;;;7.27;3.10;;;24.90;13.40;;;;;;5001168;28;20502;-68
2022/07/26 00:41:22;;;;;;;6.83;2.97;;;24.90;13.20;;;;;;5009021;28;20464;-69
2022/07/26 00:43:58;;;;;;;5.83;3.10;;;24.90;13.40;;;;;;5009876;28;20801;-69
2022/07/26 00:46:25;;;;;;;6.37;2.77;;;24.90;13.50;;;;;;5006544;28;20487;-68
2022/07/26 00:48:52;;;;;;;7.20;3.80;;;24.80;13.40;;;;;;5006176;28;20464;-69
2022/07/26 00:51:20;;;;;;;6.60;2.93;;;24.80;13.40;;;;;;5007038;28;20468;-69
2022/07/26 00:54:33;;;;;;;7.17;3.50;;;24.80;13.50;;;;;;4994665;28;20554;-69
2022/07/26 00:57:00;;;;;;;7.00;3.50;;;24.80;13.60;;;;;;5001889;28;20459;-68
2022/07/26 00:59:29;;;;;;;10.83;3.50;;;24.80;13.40;;;;;;4988770;28;20949;-69
2022/07/26 01:01:55;;;;;;;6.30;3.27;;;24.80;13.50;;;;;;4995954;28;20568;-69
2022/07/26 01:04:22;;;;;;;8.73;3.00;;;24.80;13.60;;;;;;5002401;28;20452;-69
2022/07/26 01:06:49;;;;;;;6.10;3.20;;;24.80;13.90;;;;;;4989452;28;20883;-69
2022/07/26 01:09:16;;;;;;;6.47;3.00;;;24.80;14.10;;;;;;4989394;28;20468;-68
2022/07/26 01:11:44;;;;;;;9.97;2.90;;;24.80;14.10;;;;;;4988804;28;21044;-69
2022/07/26 01:14:11;;;;;;;5.43;2.67;;;24.80;14.20;;;;;;4995423;28;20987;-70
2022/07/26 01:16:39;;;;;;;6.83;3.47;;;24.80;14.10;;;;;;4993341;28;20502;-69
2022/07/26 01:19:06;;;;;;;6.60;2.60;;;24.70;13.90;;;;;;4995630;28;20459;-69
2022/07/26 01:21:34;;;;;;;5.83;2.57;;;24.70;14.10;;;;;;4998633;28;20813;-70
2022/07/26 01:24:01;;;;;;;5.73;2.73;;;24.70;13.30;;;;;;5005540;28;20570;-70
2022/07/26 01:26:28;;;;;;;5.70;2.47;;;24.70;13.20;;;;;;4991854;28;20500;-69
2022/07/26 01:28:55;;;;;;;6.93;2.50;;;24.70;13.10;;;;;;4988365;28;20572;-68
2022/07/26 01:31:22;;;;;;;9.90;3.07;;;24.70;13.00;;;;;;4996770;28;20486;-69
2022/07/26 01:33:49;;;;;;;5.93;2.50;;;24.70;12.90;;;;;;5008436;28;20555;-68
2022/07/26 01:36:16;;;;;;;7.47;2.80;;;24.60;12.80;;;;;;4988542;28;20461;-69
2022/07/26 01:38:44;;;;;;;9.77;3.50;;;24.60;13.00;;;;;;5001595;28;20461;-68
2022/07/26 01:41:11;;;;;;;6.70;2.90;;;24.50;13.10;;;;;;4993217;28;20464;-68
2022/07/26 01:43:38;;;;;;;5.10;2.43;;;24.50;12.90;;;;;;5006888;28;20470;-69
2022/07/26 01:46:07;;;;;;;7.00;2.50;;;24.50;12.90;;;;;;4992005;28;21006;-69
2022/07/26 01:48:34;;;;;;;6.20;2.60;;;24.50;12.90;;;;;;4997432;28;20468;-68
2022/07/26 01:51:01;;;;;;;6.07;2.70;;;24.50;12.90;;;;;;4991739;28;20941;-68
2022/07/26 01:53:29;;;;;;;5.50;2.60;;;24.50;12.80;;;;;;5007712;28;21042;-70
2022/07/26 01:55:57;;;;;;;8.60;2.23;;;24.50;13.00;;;;;;5000349;28;20461;-70
2022/07/26 01:58:23;;;;;;;7.23;2.73;;;24.50;13.10;;;;;;4995449;28;20840;-69
2022/07/26 02:00:50;;;;;;;8.27;2.30;;;24.40;13.30;;;;;;4992888;28;20697;-69
2022/07/26 02:03:17;;;;;;;7.03;2.60;;;24.50;13.50;;;;;;5002711;28;20846;-69
2022/07/26 02:05:44;;;;;;;6.23;2.43;;;24.40;13.20;;;;;;5006989;28;20707;-68
2022/07/26 02:08:11;;;;;;;5.90;1.97;;;24.40;13.20;;;;;;4988302;28;20471;-68
2022/07/26 02:13:24;;;;;;;6.00;2.13;;;24.50;13.20;;;;;;4998554;28;20491;-69
2022/07/26 02:15:51;;;;;;;5.37;1.90;;;24.40;13.20;;;;;;4998316;28;20448;-69
2022/07/26 02:18:17;;;;;;;6.57;2.10;;;24.40;13.40;;;;;;4992683;28;20467;-69
2022/07/26 02:20:44;;;;;;;6.23;2.27;;;24.40;13.60;;;;;;4988219;28;20468;-69
2022/07/26 02:23:12;;;;;;;5.17;2.00;;;24.40;13.50;;;;;;5000748;28;20538;-69
2022/07/26 02:25:38;;;;;;;8.50;2.90;;;24.40;13.80;;;;;;4998061;28;20876;-69
2022/07/26 02:28:17;;;;;;;5.20;2.13;;;24.40;13.90;;;;;;5010844;28;20460;-70
2022/07/26 02:30:46;;;;;;;6.10;2.10;;;24.50;14.00;;;;;;5010977;28;20471;-68
2022/07/26 02:33:13;;;;;;;5.73;2.40;;;24.40;14.20;;;;;;5009667;28;20490;-69
2022/07/26 02:35:41;;;;;;;5.47;2.40;;;24.40;14.30;;;;;;5006816;28;20489;-68
2022/07/26 02:38:09;;;;;;;6.90;2.03;;;24.40;14.40;;;;;;4996388;28;20467;-68
2022/07/26 02:40:37;;;;;;;3.90;1.70;;;24.40;14.70;;;;;;5008493;28;20972;-68
2022/07/26 02:43:05;;;;;;;7.13;1.70;;;24.40;14.30;;;;;;5010212;28;20476;-69
2022/07/26 02:45:32;;;;;;;5.53;1.83;;;24.40;14.50;;;;;;5008043;28;20991;-68
2022/07/26 02:48:00;;;;;;;7.80;2.47;;;24.30;14.60;;;;;;5011051;28;20471;-69
2022/07/26 02:50:28;;;;;;;6.10;2.43;;;24.30;14.60;;;;;;5000341;28;21011;-69
2022/07/26 02:52:56;;;;;;;4.87;1.93;;;24.30;14.70;;;;;;4995349;28;21048;-69
2022/07/26 02:55:24;;;;;;;4.37;1.67;;;24.20;14.80;;;;;;5005431;28;20467;-68
2022/07/26 02:57:51;;;;;;;5.80;2.17;;;24.20;14.80;;;;;;5011132;28;20459;-70
2022/07/26 03:00:21;;;;;;;5.13;2.03;;;24.20;14.90;;;;;;5010098;28;20467;-69
2022/07/26 03:02:50;;;;;;;5.40;2.10;;;24.20;15.20;;;;;;5010817;28;20483;-69
2022/07/26 03:05:18;;;;;;;4.90;2.00;;;24.10;15.40;;;;;;5010758;28;20467;-69
2022/07/26 03:07:45;;;;;;;5.50;2.60;;;24.00;15.60;;;;;;5007649;28;20522;-69
2022/07/26 03:10:13;;;;;;;4.63;1.93;;;24.00;15.60;;;;;;5010584;28;20459;-69
2022/07/26 03:12:40;;;;;;;5.17;1.90;;;23.90;15.60;;;;;;5010413;28;20867;-68
2022/07/26 03:15:07;;;;;;;5.00;2.20;;;23.90;15.60;;;;;;5002647;28;20468;-68
2022/07/26 03:17:34;;;;;;;4.20;1.90;;;23.90;15.80;;;;;;5006266;28;20498;-69
2022/07/26 03:20:02;;;;;;;4.30;2.00;;;23.90;15.60;;;;;;5010845;28;20466;-68
2022/07/26 03:22:31;;;;;;;5.90;2.10;;;23.90;15.50;;;;;;5009002;28;20483;-69
2022/07/26 03:24:58;;;;;;;4.20;1.70;;;23.90;15.70;;;;;;5003609;28;20972;-69
2022/07/26 03:27:24;;;;;;;7.13;2.50;;;24.00;15.90;;;;;;4994677;28;20468;-68
2022/07/26 03:29:51;;;;;;;5.53;1.70;;;24.00;15.80;;;;;;5009867;28;20455;-67
2022/07/26 03:32:18;;;;;;;5.17;1.40;;;24.10;15.70;;;;;;5010028;28;20479;-67
2022/07/26 03:34:45;;;;;;;5.73;1.87;;;24.10;15.50;;;;;;5007401;28;20479;-67
2022/07/26 03:37:12;;;;;;;5.23;1.93;;;24.10;15.50;;;;;;4993621;28;20488;-67
2022/07/26 03:43:02;;;;;;;5.10;1.97;;;23.90;16.60;;;;;;5009481;28;20478;-67
2022/07/26 03:45:29;;;;;;;4.80;2.20;;;23.90;17.00;;;;;;5009739;28;20974;-67
2022/07/26 03:47:55;;;;;;;9.43;2.97;;;23.80;17.00;;;;;;5009324;28;20460;-66
2022/07/26 03:50:22;;;;;;;6.40;2.10;;;23.80;16.80;;;;;;5000681;28;20472;-67
2022/07/26 03:52:49;;;;;;;5.37;1.90;;;23.80;16.80;;;;;;5008562;28;20479;-67
2022/07/26 03:58:04;;;;;;;5.07;2.13;;;23.80;16.90;;;;;;4971617;28;20488;-69
2022/07/26 04:00:30;;;;;;;8.37;2.23;;;23.90;16.90;;;;;;4990048;28;20849;-68
2022/07/26 04:02:57;;;;;;;7.37;2.10;;;23.90;16.80;;;;;;4989539;28;20485;-67
2022/07/26 04:05:24;;;;;;;5.83;1.60;;;23.90;16.60;;;;;;5003281;28;20460;-67
2022/07/26 04:07:51;;;;;;;5.47;1.70;;;23.90;16.50;;;;;;4989876;28;20500;-68
2022/07/26 04:10:18;;;;;;;4.03;1.90;;;23.80;16.50;;;;;;4989517;28;20515;-67
2022/07/26 04:12:44;;;;;;;5.10;1.90;;;23.80;16.50;;;;;;5007033;28;20992;-67
2022/07/26 04:15:14;;;;;;;6.90;1.97;;;23.70;16.50;;;;;;5000542;28;20503;-68
2022/07/26 04:17:42;;;;;;;6.13;2.13;;;23.70;16.50;;;;;;5008854;28;20588;-67
2022/07/26 04:20:11;;;;;;;4.53;1.87;;;23.60;16.70;;;;;;5007614;28;20467;-67
2022/07/26 04:22:39;;;;;;;4.93;2.07;;;23.60;16.90;;;;;;4997785;28;20575;-68
2022/07/26 04:25:07;;;;;;;4.83;1.90;;;23.50;17.00;;;;;;5008793;28;20660;-67
2022/07/26 04:27:35;;;;;;;5.93;1.87;;;23.50;17.20;;;;;;5008554;28;20949;-68
2022/07/26 04:30:01;;;;;;;4.07;1.83;;;23.40;17.30;;;;;;5009605;28;20464;-66
2022/07/26 04:32:30;;;;;;;6.80;2.97;;;23.40;17.30;;;;;;5008200;28;20919;-68
2022/07/26 04:34:56;;;;;;;4.83;1.77;;;23.40;17.40;;;;;;5006248;28;20466;-68
2022/07/26 04:37:23;;;;;;;5.10;2.00;;;23.40;17.50;;;;;;5009122;28;20484;-68
2022/07/26 04:39:50;;;;;;;5.23;1.90;;;23.40;17.70;;;;;;5005908;28;20461;-67
2022/07/26 04:42:17;;;;;;;5.87;2.80;;;23.50;17.80;;;;;;5009729;28;20483;-69
2022/07/26 04:44:43;;;;;;;5.60;2.40;;;23.40;17.90;;;;;;5001186;28;20471;-67
2022/07/26 04:47:10;;;;;;;6.70;2.30;;;23.50;18.00;;;;;;4989177;28;20460;-68
2022/07/26 04:49:38;;;;;;;5.10;2.00;;;23.40;18.20;;;;;;4996175;28;20476;-69
2022/07/26 04:52:06;;;;;;;5.17;1.70;;;23.50;18.10;;;;;;4997033;28;20471;-69
2022/07/26 04:54:32;;;;;;;4.40;1.90;;;23.50;18.10;;;;;;4998005;28;20460;-66
2022/07/26 04:56:59;;;;;;;5.10;1.30;;;23.50;18.40;;;;;;4987972;28;20489;-68
2022/07/26 04:59:26;;;;;;;4.70;1.80;;;23.50;18.20;;;;;;4989499;28;20468;-67
2022/07/26 05:01:53;;;;;;;6.70;2.03;;;23.60;17.90;;;;;;4989358;28;20582;-67
2022/07/26 05:04:19;;;;;;;4.40;1.67;;;23.60;18.60;;;;;;4995051;28;20470;-68
2022/07/26 05:06:47;;;;;;;5.50;1.67;;;23.60;18.00;;;;;;5005327;28;20472;-67
2022/07/26 05:09:14;;;;;;;6.20;1.90;;;23.60;18.00;;;;;;4999939;28;20476;-67
2022/07/26 05:11:41;;;;;;;4.10;1.53;;;23.70;18.30;;;;;;5000410;28;20480;-66
2022/07/26 05:14:08;;;;;;;4.77;1.90;;;23.70;18.00;;;;;;4995721;28;20828;-67
2022/07/26 05:16:34;;;;;;;5.67;1.47;;;23.70;18.00;;;;;;5008086;28;20490;-67
2022/07/26 05:19:01;;;;;;;7.00;2.23;;;23.70;17.90;;;;;;4998504;28;20943;-67
2022/07/26 05:21:28;;;;;;;5.13;1.70;;;23.80;18.00;;;;;;5004140;28;20870;-67
2022/07/26 05:23:56;;;;;;;4.40;1.80;;;23.80;17.80;;;;;;4997715;28;20471;-67
2022/07/26 05:26:23;;;;;;;4.80;1.90;;;23.90;17.70;;;;;;4988240;28;20468;-67
2022/07/26 05:28:50;;;;;;;5.30;1.63;;;23.90;17.60;;;;;;5001253;28;20832;-68
2022/07/26 05:31:16;;;;;;;6.27;1.83;;;23.90;17.80;;;;;;5007791;28;20470;-66
2022/07/26 05:33:43;;;;;;;5.07;1.70;;;23.90;17.60;;;;;;5008858;28;20464;-66
2022/07/26 05:36:10;;;;;;;5.90;1.60;;;24.00;17.70;;;;;;5007182;28;20483;-68
2022/07/26 05:38:37;;;;;;;5.70;2.33;;;23.90;17.80;;;;;;4992373;28;20472;-67
2022/07/26 05:41:06;;;;;;;4.00;1.80;;;23.90;18.00;;;;;;5005308;28;20467;-69
2022/07/26 05:43:33;;;;;;;6.43;2.00;;;23.90;17.70;;;;;;4988297;28;20849;-69
2022/07/26 05:46:00;;;;;;;6.77;2.10;;;23.90;17.70;;;;;;4990163;28;20472;-67
2022/07/26 05:48:26;;;;;;;5.63;2.17;;;23.90;17.90;;;;;;4999322;28;20846;-68
2022/07/26 05:50:53;;;;;;;4.67;1.80;;;23.90;17.70;;;;;;4988740;28;20464;-67
2022/07/26 05:53:20;;;;;;;6.07;1.87;;;23.90;17.80;;;;;;5001783;28;20483;-68
2022/07/26 05:55:47;;;;;;;5.17;1.70;;;23.90;17.70;;;;;;4988336;28;20548;-68
2022/07/26 05:58:15;;;;;;;4.90;1.57;;;23.80;17.70;;;;;;5003529;28;20879;-67
2022/07/26 06:00:42;;;;;;;5.40;1.83;;;23.90;17.70;;;;;;4995329;28;20616;-67
2022/07/26 06:03:21;;;;;;;5.10;2.00;;;23.90;17.60;;;;;;5006696;28;20488;-68
2022/07/26 06:05:49;;;;;;;5.17;1.93;;;23.90;17.60;;;;;;5007440;28;20464;-67
2022/07/26 06:08:15;;;;;;;7.13;1.70;;;23.90;17.60;;;;;;5008233;28;20460;-67
2022/07/26 06:10:42;;;;;;;5.33;2.17;;;23.90;17.40;;;;;;4994915;28;20588;-68
2022/07/26 06:16:32;;;;;;;4.47;2.23;;;24.10;18.70;;;;;;4992422;28;20489;-68
2022/07/26 06:18:59;;;;;;;5.27;2.30;;;24.20;18.80;;;;;;4987996;28;20456;-68
2022/07/26 06:21:26;;;;;;;5.83;2.90;;;24.50;18.60;;;;;;4988252;28;20464;-67
2022/07/26 06:23:53;;;;;;;5.10;2.33;;;25.10;18.00;;;;;;4997171;28;20463;-69
2022/07/26 06:26:22;;;;;;;6.60;2.13;;;26.20;16.60;;;;;;4991325;28;20576;-69
2022/07/26 06:28:50;;;;;;;5.20;1.87;;;29.20;12.20;;;;;;4988129;28;21071;-70
2022/07/26 06:31:17;;;;;;;10.70;2.50;;;31.60;7.40;;;;;;5002973;28;21070;-68
2022/07/26 06:33:46;;;;;;;4.80;2.23;;;33.90;3.80;;;;;;5006041;28;20463;-69
2022/07/26 06:36:13;;;;;;;4.87;1.90;;;36.10;1.00;;;;;;5007223;28;20463;-69
2022/07/26 06:38:40;;;;;;;7.77;2.07;;;37.90;1.00;;;;;;4994475;28;20496;-69
2022/07/26 06:41:07;;;;;;;4.00;1.90;;;39.30;1.00;;;;;;4999613;28;20670;-70
2022/07/26 06:43:33;;;;;;;5.07;1.83;;;38.30;1.00;;;;;;4998522;28;20547;-69
2022/07/26 06:46:00;;;;;;;4.03;1.70;;;37.20;1.00;;;;;;5005554;28;20467;-69
2022/07/26 06:48:27;;;;;;;5.93;2.17;;;38.00;1.00;;;;;;5001646;28;20547;-69
2022/07/26 06:50:55;;;;;;;4.27;1.70;;;39.90;1.00;;;;;;5003975;28;21152;-69
2022/07/26 06:53:22;;;;;;;5.97;1.80;;;41.80;1.00;;;;;;4989527;28;20483;-69
2022/07/26 06:55:49;;;;;;;3.83;1.50;;;43.50;1.00;;;;;;4993750;28;20472;-69
2022/07/26 06:58:16;;;;;;;5.30;1.50;;;44.70;1.00;;;;;;5000364;28;20522;-70
2022/07/26 07:00:42;;;;;;;3.70;1.43;;;45.60;1.00;;;;;;5006731;28;20486;-69
2022/07/26 07:03:09;;;;;;;4.30;1.50;;;46.20;1.00;;;;;;4994631;28;20499;-69
2022/07/26 07:05:36;;;;;;;5.37;1.70;;;46.80;1.00;;;;;;5003048;28;20468;-70
2022/07/26 07:08:05;;;;;;;3.93;1.33;;;47.50;1.00;;;;;;4998085;28;20551;-69
2022/07/26 07:10:32;;;;;;;5.20;1.43;;;48.40;1.00;;;;;;4997465;28;21193;-69
2022/07/26 07:12:58;;;;;;;3.57;1.33;;;48.50;1.00;;;;;;5006994;28;20514;-70
2022/07/26 07:15:25;;;;;;;4.33;1.90;;;46.30;1.00;;;;;;5008869;28;20494;-70
2022/07/26 07:17:52;;;;;;;4.43;2.00;;;43.80;1.00;;;;;;5000941;28;20628;-70
2022/07/26 07:20:19;;;;;;;3.83;1.30;;;41.80;1.00;;;;;;5001643;28;20471;-69
2022/07/26 07:22:45;;;;;;;4.83;1.90;;;40.10;1.00;;;;;;5010309;28;20490;-69
2022/07/26 07:25:14;;;;;;;6.70;2.60;;;38.60;1.00;;;;;;4994695;28;20476;-69
2022/07/26 07:27:41;;;;;;;5.20;2.00;;;37.10;1.00;;;;;;5009562;28;20988;-69
2022/07/26 07:30:09;;;;;;;4.50;2.27;;;35.80;1.00;;;;;;5000131;28;20470;-69
2022/07/26 07:32:36;;;;;;;4.53;1.80;;;34.60;1.00;;;;;;5004173;28;20468;-69
2022/07/26 07:35:03;;;;;;;5.80;2.00;;;33.70;1.00;;;;;;4991522;28;20988;-69
2022/07/26 07:37:30;;;;;;;8.13;2.30;;;32.80;1.00;;;;;;5002402;28;20512;-69
2022/07/26 07:39:57;;;;;;;5.40;1.90;;;32.10;2.60;;;;;;5001267;28;20493;-69
2022/07/26 07:42:25;;;;;;;6.73;2.50;;;31.60;3.60;;;;;;5009383;28;20480;-70
2022/07/26 07:44:52;;;;;;;8.57;2.27;;;31.20;4.50;;;;;;5007859;28;20989;-69
2022/07/26 07:47:20;;;;;;;5.90;2.27;;;30.90;4.80;;;;;;4999866;28;20464;-70
2022/07/26 07:49:47;;;;;;;6.03;2.07;;;30.60;5.50;;;;;;4997877;28;20496;-69
2022/07/26 07:52:14;;;;;;;4.70;1.73;;;30.30;6.00;;;;;;4994515;28;20498;-69
2022/07/26 07:54:41;;;;;;;5.20;2.10;;;30.00;6.50;;;;;;5000874;28;20473;-69
2022/07/26 07:57:08;;;;;;;5.83;2.20;;;29.70;6.80;;;;;;5006512;28;20484;-69
2022/07/26 07:59:36;;;;;;;6.73;2.20;;;29.30;7.50;;;;;;5005875;28;20468;-69
2022/07/26 08:02:03;;;;;;;5.60;1.93;;;29.00;8.20;;;;;;5001189;28;20479;-69
2022/07/26 08:04:29;;;;;;;4.87;2.60;;;28.60;8.60;;;;;;4996673;28;20464;-69
2022/07/26 08:06:56;;;;;;;6.13;2.67;;;28.40;9.10;;;;;;4999860;28;20468;-71
2022/07/26 08:09:23;;;;;;;5.20;2.07;;;28.50;9.30;;;;;;5009072;28;20459;-69
2022/07/26 08:11:50;;;;;;;6.00;2.20;;;28.70;8.90;;;;;;5008386;28;20502;-69
2022/07/26 08:14:17;;;;;;;4.63;1.80;;;29.50;9.30;;;;;;5007462;28;20460;-67
2022/07/26 08:16:45;;;;;;;7.70;2.50;;;33.70;4.70;;;;;;4991475;28;20543;-69
2022/07/26 08:19:12;;;;;;;4.87;1.97;;;36.60;1.00;;;;;;5009540;28;20488;-68
2022/07/26 08:21:39;;;;;;;4.13;2.00;;;37.50;1.00;;;;;;4999057;28;20488;-70
2022/07/26 08:24:07;;;;;;;4.20;2.10;;;37.10;1.00;;;;;;5009352;28;20567;-68
2022/07/26 08:26:33;;;;;;;5.60;1.70;;;36.00;1.00;;;;;;5008635;28;20475;-68
2022/07/26 08:29:00;;;;;;;4.13;1.70;;;34.80;1.00;;;;;;5002485;28;20462;-69
2022/07/26 08:31:27;;;;;;;4.03;1.60;;;33.80;1.00;;;;;;5007800;28;21001;-69
2022/07/26 08:33:56;;;;;;;4.77;2.07;;;32.90;1.00;;;;;;5004759;28;21068;-70
2022/07/26 08:36:23;;;;;;;4.20;1.70;;;33.20;1.00;;;;;;4999538;28;21039;-69
2022/07/26 08:38:51;;;;;;;5.10;2.20;;;35.50;1.00;;;;;;5008809;28;20492;-68
2022/07/26 08:41:18;;;;;;;4.80;1.90;;;38.90;1.00;;;;;;4996575;28;20503;-69
2022/07/26 08:43:45;;;;;;;5.20;1.60;;;42.60;1.00;;;;;;4995677;28;20461;-68
2022/07/26 08:46:12;;;;;;;5.93;1.87;;;45.60;1.00;;;;;;5004857;28;20460;-69
2022/07/26 08:48:38;;;;;;;4.50;1.77;;;46.50;1.00;;;;;;5009098;28;20494;-69
2022/07/26 08:51:09;;;;;;;4.10;1.50;;;45.20;1.00;;;;;;5004357;28;20464;-69
2022/07/26 08:53:37;;;;;;;4.40;1.60;;;44.30;1.00;;;;;;5009494;28;20940;-70
2022/07/26 08:56:04;;;;;;;3.90;1.23;;;45.00;1.00;;;;;;4995504;28;20526;-69
2022/07/26 08:58:34;;;;;;;5.93;1.57;;;46.10;1.00;;;;;;5004110;28;20495;-68
2022/07/26 09:01:05;;;;;;;4.10;1.30;;;48.10;1.00;;;;;;5008284;28;20476;-68
2022/07/26 09:03:32;;;;;;;3.43;1.07;;;49.90;1.00;;;;;;5006113;28;20860;-68
2022/07/26 09:06:13;;;;;;;4.47;1.33;;;51.10;1.00;;;;;;5005576;28;20469;-70
2022/07/26 09:08:40;;;;;;;5.07;1.53;;;52.40;1.00;;;;;;4996167;28;20462;-69
2022/07/26 09:11:31;;;;;;;4.10;1.50;;;53.20;1.00;;;;;;5004164;28;21036;-70
2022/07/26 09:13:59;;;;;;;3.10;1.30;;;54.10;1.00;;;;;;5000555;28;20499;-69
2022/07/26 09:16:27;;;;;;;4.90;1.73;;;54.80;1.00;;;;;;5001378;28;20464;-70
2022/07/26 09:18:54;;;;;;;5.20;1.40;;;55.10;1.00;;;;;;5008515;28;20483;-70
2022/07/26 09:21:31;;;;;;;3.37;1.37;;;55.40;1.00;;;;;;4998027;28;20515;-69
2022/07/26 09:23:59;;;;;;;4.03;1.70;;;53.50;1.00;;;;;;5002604;28;20475;-69
2022/07/26 09:26:26;;;;;;;3.07;1.40;;;49.90;1.00;;;;;;5000835;28;20460;-69
2022/07/26 09:29:04;;;;;;;5.27;1.40;;;46.90;1.00;;;;;;5004951;28;21362;-69
2022/07/26 09:31:31;;;;;;;6.20;1.90;;;45.00;1.00;;;;;;4998010;28;20832;-69
2022/07/26 09:33:58;;;;;;;4.30;1.73;;;43.70;1.00;;;;;;5005605;28;20522;-69
2022/07/26 09:36:26;;;;;;;6.37;1.40;;;44.50;1.00;;;;;;5006460;28;20463;-69
2022/07/26 09:38:57;;;;;;;4.17;1.50;;;46.90;1.00;;;;;;5007137;28;20494;-70
2022/07/26 09:41:26;;;;;;;4.97;1.77;;;47.50;1.00;;;;;;5006109;28;20467;-69
2022/07/26 09:43:54;;;;;;;3.77;1.50;;;47.40;1.00;;;;;;5002840;28;20902;-69
2022/07/26 09:46:21;;;;;;;6.83;1.80;;;46.60;1.00;;;;;;5003364;28;20495;-69
2022/07/26 09:48:48;;;;;;;4.20;1.53;;;44.10;1.00;;;;;;5001950;28;20464;-69
2022/07/26 09:51:15;;;;;;;4.27;1.60;;;41.70;1.00;;;;;;5005398;28;20463;-69
2022/07/26 09:53:44;;;;;;;6.00;1.70;;;40.60;1.00;;;;;;4998999;28;20471;-70
2022/07/26 09:56:14;;;;;;;3.53;1.63;;;42.10;1.00;;;;;;5007406;28;20530;-70
2022/07/26 09:58:41;;;;;;;5.10;1.93;;;43.40;1.00;;;;;;5006553;28;20826;-69
2022/07/26 10:01:08;;;;;;;4.70;2.10;;;43.50;1.00;;;;;;5007440;28;20472;-68
2022/07/26 10:03:35;;;;;;;4.83;1.80;;;43.00;1.00;;;;;;4998397;28;20471;-69
2022/07/26 10:06:03;;;;;;;4.10;1.60;;;41.60;1.00;;;;;;5005227;28;20471;-70
2022/07/26 10:08:32;;;;;;;7.23;2.53;;;39.60;1.00;;;;;;5006652;28;20460;-69
2022/07/26 10:11:04;;;;;;;5.47;2.07;;;37.90;1.00;;;;;;5005443;28;20468;-70
2022/07/26 10:13:32;;;;;;;6.30;1.60;;;36.60;1.00;;;;;;4989622;28;20480;-68
2022/07/26 10:16:00;;;;;;;4.77;1.67;;;35.80;1.00;;;;;;5000621;28;20460;-69
2022/07/26 10:18:44;;;;;;;4.83;1.87;;;35.20;1.00;;;;;;5003725;28;20495;-69
2022/07/26 10:21:22;;;;;;;4.87;1.70;;;34.40;1.00;;;;;;5006387;28;20468;-68
2022/07/26 10:23:51;;;;;;;4.23;1.93;;;33.80;1.00;;;;;;4995698;28;20464;-68
2022/07/26 10:26:44;;;;;;;4.97;1.70;;;33.50;1.00;;;;;;5001260;28;20488;-70
2022/07/26 10:29:27;;;;;;;5.00;1.93;;;33.20;1.00;;;;;;4980109;28;20459;-68
2022/07/26 10:32:14;;;;;;;4.33;1.60;;;32.90;1.00;;;;;;5000460;28;21156;-68
2022/07/26 10:34:41;;;;;;;4.00;1.80;;;32.70;1.00;;;;;;5001805;28;20522;-69
2022/07/26 10:37:09;;;;;;;4.50;1.33;;;32.80;1.00;;;;;;5002225;28;20475;-68
2022/07/26 10:39:37;;;;;;;4.23;1.80;;;32.80;1.00;;;;;;4989093;28;20480;-67
2022/07/26 10:42:05;;;;;;;3.80;1.70;;;32.80;1.00;;;;;;5005619;28;21238;-67
2022/07/26 10:44:34;;;;;;;4.50;2.03;;;32.60;1.00;;;;;;4997378;28;20555;-67
2022/07/26 10:47:14;;;;;;;7.87;1.93;;;32.40;1.00;;;;;;5006628;28;20471;-67
2022/07/26 10:49:42;;;;;;;6.03;2.47;;;32.40;1.00;;;;;;5011206;28;20459;-67
2022/07/26 10:52:17;;;;;;;4.27;1.70;;;32.50;1.00;;;;;;5006441;28;20479;-67
2022/07/26 10:55:13;;;;;;;5.17;1.90;;;32.20;1.00;;;;;;5003890;28;20477;-67
2022/07/26 10:57:42;;;;;;;4.07;1.77;;;32.00;1.00;;;;;;5003762;28;20463;-67
2022/07/26 11:00:16;;;;;;;7.47;2.63;;;31.80;1.00;;;;;;5011223;28;20495;-67
2022/07/26 11:02:47;;;;;;;4.43;1.70;;;31.70;1.00;;;;;;5010096;28;20608;-67
2022/07/26 11:05:17;;;;;;;3.97;1.50;;;31.70;1.00;;;;;;5000904;28;20468;-67
2022/07/26 11:07:57;;;;;;;4.47;1.50;;;31.80;1.00;;;;;;5004571;28;21019;-67
2022/07/26 11:10:27;;;;;;;3.70;1.60;;;31.80;1.00;;;;;;5001795;28;20491;-67
2022/07/26 11:13:06;;;;;;;4.90;1.83;;;31.70;1.00;;;;;;5009719;28;20523;-67
2022/07/26 11:15:34;;;;;;;4.60;1.87;;;31.60;1.00;;;;;;5009854;28;20466;-67
2022/07/26 11:18:16;;;;;;;4.87;1.70;;;31.50;1.00;;;;;;5011357;28;20467;-67
2022/07/26 11:20:45;;;;;;;6.13;2.00;;;31.40;1.00;;;;;;5010524;28;20994;-67
2022/07/26 11:23:33;;;;;;;3.97;1.47;;;31.30;1.00;;;;;;5009916;28;20513;-67
2022/07/26 11:26:09;;;;;;;4.30;1.47;;;31.30;1.00;;;;;;4998999;28;20473;-67
2022/07/26 11:29:00;;;;;;;5.90;1.73;;;31.40;1.00;;;;;;4998351;28;20462;-67
2022/07/26 11:31:39;;;;;;;3.80;1.43;;;31.60;1.00;;;;;;4996946;28;20474;-67
2022/07/26 11:34:07;;;;;;;8.30;2.00;;;31.70;1.00;;;;;;5005446;28;20456;-67
2022/07/26 11:36:36;;;;;;;4.33;1.37;;;31.60;1.00;;;;;;4999210;28;20470;-67
2022/07/26 11:39:04;;;;;;;7.10;1.90;;;31.60;1.00;;;;;;5002138;28;20493;-67
2022/07/26 11:41:32;;;;;;;4.90;1.63;;;31.30;1.00;;;;;;5001735;28;20487;-67
2022/07/26 11:43:59;;;;;;;3.57;1.53;;;31.20;1.00;;;;;;5002124;28;20464;-67
2022/07/26 11:46:39;;;;;;;6.77;1.63;;;31.10;1.00;;;;;;5005640;28;20975;-66
2022/07/26 11:49:14;;;;;;;6.13;1.33;;;31.00;1.00;;;;;;5006947;28;20495;-67
2022/07/26 11:51:47;;;;;;;3.93;1.33;;;31.00;1.00;;;;;;5000637;28;20488;-66
2022/07/26 11:54:14;;;;;;;4.10;1.40;;;31.10;1.00;;;;;;5007595;28;20460;-67
2022/07/26 11:56:50;;;;;;;5.37;1.63;;;31.20;1.00;;;;;;5003099;28;20468;-65
2022/07/26 11:59:18;;;;;;;4.00;1.40;;;31.30;1.00;;;;;;5002449;28;20877;-66
2022/07/26 12:01:46;;;;;;;3.70;1.33;;;31.40;1.00;;;;;;4997561;28;20480;-65
2022/07/26 12:04:20;;;;;;;5.53;1.50;;;31.50;1.00;;;;;;5009357;28;20471;-68
2022/07/26 12:06:47;;;;;;;5.87;1.67;;;31.70;1.00;;;;;;5008432;28;20525;-69
2022/07/26 12:09:28;;;;;;;3.37;1.10;;;31.90;1.00;;;;;;5001228;28;20452;-69
2022/07/26 12:11:55;;;;;;;4.33;1.23;;;32.00;1.00;;;;;;5009146;28;20480;-69
2022/07/26 12:14:25;;;;;;;4.20;1.40;;;31.90;1.00;;;;;;5001766;28;20496;-69
2022/07/26 12:16:54;;;;;;;3.73;1.23;;;31.90;1.00;;;;;;5005528;28;20463;-69
2022/07/26 12:19:27;;;;;;;5.07;1.80;;;31.80;1.00;;;;;;5008417;28;20491;-69
2022/07/26 12:21:56;;;;;;;3.90;1.30;;;31.60;1.00;;;;;;5003211;28;20570;-69
2022/07/26 12:24:38;;;;;;;5.80;1.60;;;31.50;1.00;;;;;;4995886;28;20472;-69
2022/07/26 12:27:07;;;;;;;3.80;1.40;;;31.40;1.00;;;;;;5001694;28;20472;-69
2022/07/26 12:29:35;;;;;;;6.53;1.37;;;31.30;1.00;;;;;;5008794;28;20460;-69
2022/07/26 12:32:06;;;;;;;3.90;1.30;;;31.30;1.00;;;;;;5006852;28;20480;-68
2022/07/26 12:34:33;;;;;;;4.93;1.20;;;31.10;1.00;;;;;;5005627;28;20460;-69
2022/07/26 12:37:14;;;;;;;4.33;1.43;;;30.90;1.00;;;;;;5008355;28;20466;-68
2022/07/26 12:39:43;;;;;;;4.30;1.50;;;30.80;1.00;;;;;;4996099;28;20483;-69
2022/07/26 12:42:28;;;;;;;3.77;1.43;;;30.70;1.00;;;;;;5008126;28;20488;-68
2022/07/26 12:44:55;;;;;;;4.53;1.40;;;30.50;1.00;;;;;;5007863;28;20464;-68
2022/07/26 12:47:23;;;;;;;3.63;1.17;;;30.50;1.00;;;;;;5001407;28;20464;-69
2022/07/26 12:49:50;;;;;;;5.13;1.60;;;30.30;1.00;;;;;;5005398;28;20818;-69
2022/07/26 12:52:18;;;;;;;4.17;1.33;;;30.20;1.00;;;;;;4997988;28;21327;-69
2022/07/26 12:54:47;;;;;;;4.33;1.40;;;30.00;1.00;;;;;;5009243;28;20466;-70
2022/07/26 12:57:14;;;;;;;4.90;1.40;;;29.90;1.00;;;;;;4994152;28;20461;-68
2022/07/26 12:59:41;;;;;;;5.30;1.50;;;29.80;1.00;;;;;;5007589;28;20476;-69
2022/07/26 13:02:08;;;;;;;5.10;1.10;;;29.70;1.00;;;;;;5008619;28;20491;-68
2022/07/26 13:04:36;;;;;;;3.47;1.00;;;29.60;1.00;;;;;;5006580;28;20475;-68
2022/07/26 13:07:04;;;;;;;4.00;1.00;;;29.60;1.00;;;;;;4998341;28;20472;-69
2022/07/26 13:09:32;;;;;;;5.30;1.43;;;29.50;1.00;;;;;;5001024;28;20453;-70
2022/07/26 13:11:59;;;;;;;3.73;1.30;;;29.40;1.00;;;;;;4997585;28;20496;-69
2022/07/26 13:14:26;;;;;;;4.47;1.40;;;29.30;1.00;;;;;;5005915;28;20460;-69